Time,TemperatureF,DewpointF,PressureIn,WindDirection,WindDirectionDegrees,WindSpeedMPH,WindSpeedGustMPH,Humidity,HourlyPrecipIn,Conditions,Clouds,dailyrainin,SoftwareType,DateUTC
2013-02-20 00:05:00,35.0,30.0,-100.00,WSW,241,5.0,6.0,81,-99.99,,,-99.99,,2013-02-20 08:05:00,
2013-02-20 00:11:00,35.0,30.0,-100.00,WSW,241,5.0,6.0,81,-99.99,,,-99.99,,2013-02-20 08:11:00,
2013-02-20 01:01:00,34.0,29.0,-100.00,WSW,239,6.0,7.0,81,-99.99,,,-99.99,,2013-02-20 09:01:00,
2013-02-20 01:11:00,34.0,29.0,-100.00,WSW,239,6.0,7.0,81,-99.99,,,-99.99,,2013-02-20 09:11:00,
2013-02-20 02:01:00,31.0,28.0,-100.00,WSW,255,6.0,8.0,88,-99.99,,,-99.99,,2013-02-20 10:01:00,
2013-02-20 02:12:00,31.0,28.0,-100.00,WSW,255,6.0,8.0,88,-99.99,,,-99.99,,2013-02-20 10:12:00,
2013-02-20 03:02:00,31.0,27.0,-100.00,West,279,6.0,8.0,84,-99.99,,,-99.99,,2013-02-20 11:02:00,
2013-02-20 03:11:00,31.0,27.0,-100.00,West,279,6.0,8.0,84,-99.99,,,-99.99,,2013-02-20 11:11:00,
2013-02-20 04:01:00,28.0,26.0,-100.00,WNW,296,5.0,7.0,92,-99.99,,,-99.99,,2013-02-20 12:01:00,
2013-02-20 04:12:00,28.0,26.0,-100.00,WNW,296,5.0,7.0,92,-99.99,,,-99.99,,2013-02-20 12:12:00,
2013-02-20 05:01:00,26.0,25.0,-100.00,WNW,286,5.0,6.0,95,-99.99,,,-99.99,,2013-02-20 13:01:00,
2013-02-20 05:11:00,26.0,25.0,-100.00,WNW,286,5.0,6.0,95,-99.99,,,-99.99,,2013-02-20 13:11:00,
2013-02-20 06:01:00,26.0,24.0,-100.00,SW,235,6.0,7.0,92,-99.99,,,-99.99,,2013-02-20 14:01:00,
2013-02-20 06:11:00,26.0,24.0,-100.00,SW,235,6.0,7.0,92,-99.99,,,-99.99,,2013-02-20 14:11:00,
2013-02-20 07:01:00,25.0,24.0,-100.00,WSW,239,5.0,6.0,95,-99.99,,,-99.99,,2013-02-20 15:01:00,
2013-02-20 07:11:00,25.0,24.0,-100.00,WSW,239,5.0,6.0,95,-99.99,,,-99.99,,2013-02-20 15:11:00,
2013-02-20 08:01:00,25.0,24.0,-100.00,SW,221,5.0,7.0,95,-99.99,,,-99.99,,2013-02-20 16:01:00,
2013-02-20 08:11:00,25.0,24.0,-100.00,SW,221,5.0,7.0,95,-99.99,,,-99.99,,2013-02-20 16:11:00,
2013-02-20 10:02:00,40.0,27.0,-100.00,North,5,2.0,3.0,59,-99.99,,,-99.99,,2013-02-20 18:02:00,
2013-02-20 10:11:00,40.0,27.0,-100.00,North,5,2.0,3.0,59,-99.99,,,-99.99,,2013-02-20 18:11:00,
2013-02-20 11:01:00,43.0,28.0,-100.00,NNE,17,3.0,6.0,55,-99.99,,,-99.99,,2013-02-20 19:01:00,
2013-02-20 11:11:00,43.0,28.0,-100.00,NNE,17,3.0,6.0,55,-99.99,,,-99.99,,2013-02-20 19:11:00,
2013-02-20 12:01:00,45.0,28.0,-100.00,East,89,3.0,8.0,51,-99.99,,,-99.99,,2013-02-20 20:01:00,
2013-02-20 12:11:00,45.0,28.0,-100.00,East,89,3.0,8.0,51,-99.99,,,-99.99,,2013-02-20 20:11:00,
2013-02-20 13:01:00,48.0,29.0,-100.00,South,187,3.0,10.0,47,-99.99,,,-99.99,,2013-02-20 21:01:00,
2013-02-20 13:11:00,48.0,29.0,-100.00,South,187,3.0,10.0,47,-99.99,,,-99.99,,2013-02-20 21:11:00,
2013-02-20 13:52:00,49.0,29.0,-100.00,SSE,152,6.0,12.0,45,-99.99,,,-99.99,,2013-02-20 21:52:00,
2013-02-20 14:01:00,49.0,29.0,-100.00,SSE,152,6.0,12.0,45,-99.99,,,-99.99,,2013-02-20 22:01:00,
2013-02-20 14:11:00,49.0,29.0,-100.00,SSE,152,6.0,12.0,45,-99.99,,,-99.99,,2013-02-20 22:11:00,
2013-02-20 15:01:00,49.0,29.0,-100.00,SE,136,5.0,10.0,45,-99.99,,,-99.99,,2013-02-20 23:01:00,
2013-02-20 15:12:00,49.0,29.0,-100.00,SE,136,5.0,10.0,45,-99.99,,,-99.99,,2013-02-20 23:12:00,
2013-02-20 16:02:00,48.0,28.0,-100.00,South,182,3.0,7.0,45,-99.99,,,-99.99,,2013-02-21 00:02:00,
2013-02-20 16:11:00,48.0,28.0,-100.00,South,182,3.0,7.0,45,-99.99,,,-99.99,,2013-02-21 00:11:00,
2013-02-20 17:01:00,48.0,27.0,-100.00,SSE,167,2.0,3.0,43,-99.99,,,-99.99,,2013-02-21 01:01:00,
2013-02-20 17:11:00,48.0,27.0,-100.00,SSE,167,2.0,3.0,43,-99.99,,,-99.99,,2013-02-21 01:11:00,
2013-02-20 18:01:00,44.0,28.0,-100.00,NNE,16,2.0,3.0,53,-99.99,,,-99.99,,2013-02-21 02:01:00,
2013-02-20 18:11:00,44.0,28.0,-100.00,NNE,16,2.0,3.0,53,-99.99,,,-99.99,,2013-02-21 02:11:00,
2013-02-20 19:01:00,41.0,28.0,-100.00,SSE,158,2.0,3.0,59,-99.99,,,-99.99,,2013-02-21 03:01:00,
2013-02-20 19:12:00,41.0,28.0,-100.00,SSE,158,2.0,3.0,59,-99.99,,,-99.99,,2013-02-21 03:12:00,
2013-02-20 20:01:00,40.0,28.0,-100.00,SW,232,5.0,6.0,61,-99.99,,,-99.99,,2013-02-21 04:01:00,
2013-02-20 20:11:00,40.0,28.0,-100.00,SW,232,5.0,6.0,61,-99.99,,,-99.99,,2013-02-21 04:11:00,
2013-02-20 20:52:00,36.0,28.0,-100.00,WNW,290,5.0,6.0,72,-99.99,,,-99.99,,2013-02-21 04:52:00,
2013-02-20 21:02:00,36.0,28.0,-100.00,WNW,290,5.0,6.0,72,-99.99,,,-99.99,,2013-02-21 05:02:00,
2013-02-20 21:12:00,36.0,28.0,-100.00,WNW,290,5.0,6.0,72,-99.99,,,-99.99,,2013-02-21 05:12:00,
2013-02-20 21:59:00,33.0,25.0,-100.00,WSW,254,7.0,9.0,72,-99.99,,,-99.99,,2013-02-21 05:59:00,
2013-02-20 22:11:00,33.0,25.0,-100.00,WSW,254,7.0,9.0,72,-99.99,,,-99.99,,2013-02-21 06:11:00,
2013-02-20 23:01:00,33.0,24.0,-100.00,West,261,7.0,8.0,69,-99.99,,,-99.99,,2013-02-21 07:01:00,
2013-02-20 23:11:00,33.0,24.0,-100.00,West,261,7.0,8.0,69,-99.99,,,-99.99,,2013-02-21 07:11:00,